Time;durP1;ratioP1;P1;durP2;ratioP2;P2;SDS_P1;SDS_P2;PMS_P1;PMS_P2;Temp;Humidity;BMP_temperature;BMP_pressure;BME280_temperature;BME280_humidity;BME280_pressure;Samples;Min_cycle;Max_cycle;Signal;HPM_P1;HPM_P2
2022/08/12 00:43:49;;;;;;;13.83;11.27;;;;;;;25.03;100.00;100102.55;1779162;80;20915;-59
2022/08/12 00:46:31;;;;;;;12.57;10.40;;;;;;;24.99;100.00;100109.78;1779215;80;22145;-57
2022/08/12 00:48:58;;;;;;;11.13;10.13;;;;;;;24.98;100.00;100102.86;1779549;80;20975;-57
2022/08/12 00:54:00;;;;;;;11.47;10.23;;;;;;;24.92;100.00;100111.98;1745190;80;20975;-57
2022/08/12 00:56:28;;;;;;;13.47;11.07;;;;;;;24.88;100.00;100114.16;1779645;80;21511;-57
2022/08/12 00:58:56;;;;;;;11.23;10.07;;;;;;;24.87;100.00;100111.25;1779556;80;21201;-57
2022/08/12 01:01:23;;;;;;;12.07;10.90;;;;;;;24.87;100.00;100104.05;1778672;80;21030;-67
2022/08/12 01:12:08;;;;;;;13.00;11.20;;;;;;;24.76;100.00;100095.88;1779487;80;21268;-56
2022/08/12 01:14:35;;;;;;;14.47;10.03;;;;;;;24.73;100.00;100086.56;1778546;80;20873;-56
2022/08/12 01:17:03;;;;;;;11.23;10.13;;;;;;;24.71;100.00;100089.28;1741216;82;21312;-58
2022/08/12 01:19:31;;;;;;;12.30;10.07;;;;;;;24.67;100.00;100096.25;1748606;82;21056;-55
2022/08/12 01:22:18;;;;;;;12.20;11.07;;;;;;;24.62;100.00;100094.40;1748871;82;21426;-56
2022/08/12 01:25:08;;;;;;;13.73;11.47;;;;;;;24.57;100.00;100097.66;1748155;82;21231;-63
2022/08/12 01:27:39;;;;;;;12.40;11.10;;;;;;;24.50;100.00;100096.09;1748461;82;20934;-65
2022/08/12 01:30:08;;;;;;;12.17;10.23;;;;;;;24.43;100.00;100088.96;1748131;82;20853;-55
2022/08/12 01:32:36;;;;;;;11.20;10.10;;;;;;;24.36;100.00;100088.48;1748266;82;21498;-58
2022/08/12 01:35:10;;;;;;;11.63;10.30;;;;;;;24.26;100.00;100080.56;1729612;82;21542;-56
2022/08/12 01:37:58;;;;;;;15.60;9.83;;;;;;;24.21;100.00;100077.41;1748427;82;21258;-61
2022/08/12 01:40:29;;;;;;;10.77;9.57;;;;;;;24.18;100.00;100079.83;1739590;81;21482;-56
2022/08/12 01:43:01;;;;;;;11.80;10.70;;;;;;;24.13;100.00;100063.86;1748500;82;20925;-56
2022/08/12 01:45:28;;;;;;;12.40;11.10;;;;;;;24.08;100.00;100063.91;1748162;82;20940;-59
2022/08/12 01:48:22;;;;;;;13.50;12.20;;;;;;;24.05;100.00;100062.59;1748449;82;21817;-60
2022/08/12 01:51:02;;;;;;;13.70;12.37;;;;;;;24.03;100.00;100052.22;1741461;81;21143;-56
2022/08/12 01:54:03;;;;;;;14.90;12.20;;;;;;;24.01;100.00;100046.37;1748486;82;21030;-55
2022/08/12 01:56:55;;;;;;;13.60;11.55;;;;;;;24.00;100.00;100049.31;1748374;82;21103;-64
2022/08/12 01:59:49;;;;;;;12.70;11.50;;;;;;;23.99;100.00;100044.53;1748600;82;22006;-55
2022/08/12 02:02:25;;;;;;;12.17;10.87;;;;;;;24.02;100.00;100043.19;1748490;82;21721;-65
2022/08/12 02:11:30;;;;;;;13.20;10.50;;;;;;;24.20;100.00;100041.70;1748238;82;21004;-65
2022/08/12 02:14:27;;;;;;;11.63;10.43;;;;;;;24.20;100.00;100049.16;1748362;82;21319;-55
2022/08/12 02:17:25;;;;;;;11.77;10.50;;;;;;;24.18;100.00;100053.19;1751247;80;20945;-61
2022/08/12 02:20:06;;;;;;;13.53;10.37;;;;;;;24.17;100.00;100057.73;1778363;80;21228;-56
2022/08/12 02:22:43;;;;;;;10.80;9.73;;;;;;;24.09;100.00;100060.95;1778550;80;20972;-64
2022/08/12 02:25:30;;;;;;;11.60;10.20;;;;;;;24.04;100.00;100058.34;1778954;80;21034;-63
2022/08/12 02:27:58;;;;;;;14.10;10.90;;;;;;;23.99;100.00;100067.16;1779330;80;21044;-57
2022/08/12 02:30:30;;;;;;;12.63;10.40;;;;;;;23.94;100.00;100058.40;1778794;80;20980;-57
2022/08/12 02:32:59;;;;;;;14.50;11.27;;;;;;;23.88;100.00;100066.97;1779050;80;21244;-65
2022/08/12 02:35:30;;;;;;;11.33;10.07;;;;;;;23.86;100.00;100059.78;1779572;80;21757;-58
2022/08/12 02:37:59;;;;;;;15.60;10.80;;;;;;;23.87;100.00;100059.27;1779058;80;21409;-66
2022/08/12 02:40:27;;;;;;;13.80;11.07;;;;;;;23.83;100.00;100056.36;1779831;80;21380;-56
2022/08/12 02:43:03;;;;;;;12.80;10.40;;;;;;;23.81;100.00;100055.83;1778732;80;20890;-58
2022/08/12 02:45:53;;;;;;;14.37;10.60;;;;;;;23.79;100.00;100054.78;1779551;80;21276;-57
2022/08/12 02:48:54;;;;;;;11.20;9.53;;;;;;;23.79;100.00;100061.44;1778607;80;20947;-58
2022/08/12 02:51:33;;;;;;;11.43;9.17;;;;;;;23.82;100.00;100062.73;1779057;80;20943;-59
2022/08/12 02:54:02;;;;;;;12.43;9.07;;;;;;;23.85;100.00;100064.85;1778657;80;21596;-57
2022/08/12 02:56:29;;;;;;;14.17;9.20;;;;;;;23.90;100.00;100057.36;1779458;80;21046;-57
2022/08/12 02:58:59;;;;;;;12.47;8.60;;;;;;;23.97;100.00;100063.97;1779351;80;21805;-57
2022/08/12 03:01:32;;;;;;;12.25;7.78;;;;;;;24.07;100.00;100055.13;1778719;80;21018;-57
2022/08/12 03:04:02;;;;;;;13.63;7.80;;;;;;;24.13;100.00;100063.86;1779206;80;21054;-57
2022/08/12 03:06:42;;;;;;;9.00;6.90;;;;;;;24.25;100.00;100061.66;1779175;80;21584;-57
2022/08/12 03:09:14;;;;;;;9.48;7.47;;;;;;;24.34;100.00;100067.97;1779095;80;21018;-65
2022/08/12 03:11:46;;;;;;;9.87;7.40;;;;;;;24.41;100.00;100072.47;1778846;80;21551;-57
2022/08/12 03:14:14;;;;;;;10.40;7.73;;;;;;;24.47;100.00;100084.69;1778928;80;20979;-57
2022/08/12 03:16:42;;;;;;;10.77;7.00;;;;;;;24.49;100.00;100087.86;1779273;80;21003;-57
2022/08/12 03:19:09;;;;;;;12.83;7.70;;;;;;;24.51;100.00;100095.05;1779075;80;20869;-63
2022/08/12 03:21:36;;;;;;;9.87;7.47;;;;;;;24.53;100.00;100097.42;1724241;80;21035;-55
2022/08/12 03:24:05;;;;;;;10.20;7.57;;;;;;;24.59;100.00;100102.19;1779427;80;21150;-56
2022/08/12 03:26:34;;;;;;;10.37;7.77;;;;;;;24.61;100.00;100089.36;1779526;80;20951;-55
2022/08/12 03:29:05;;;;;;;10.53;7.47;;;;;;;24.63;100.00;100096.02;1779908;80;21045;-56
2022/08/12 03:31:32;;;;;;;9.65;7.12;;;;;;;24.74;100.00;100098.84;1779258;80;23123;-56
2022/08/12 03:34:03;;;;;;;11.87;7.40;;;;;;;24.84;100.00;100105.94;1780069;80;21140;-58
2022/08/12 03:36:33;;;;;;;9.85;7.90;;;;;;;25.03;100.00;100103.89;1780211;80;21233;-57
2022/08/12 03:41:59;;;;;;;10.00;7.33;;;;;;;25.47;100.00;100103.15;1780011;80;21640;-56
2022/08/12 04:01:25;;;;;;;12.55;8.28;;;;;;;27.79;96.67;100133.33;1779112;80;20982;-65
2022/08/12 04:03:52;;;;;;;8.93;7.42;;;;;;;28.18;90.41;100131.13;1779101;80;22508;-56
2022/08/12 04:06:25;;;;;;;12.18;8.33;;;;;;;28.50;86.04;100126.13;1749215;80;21038;-56
2022/08/12 04:08:57;;;;;;;9.30;8.05;;;;;;;28.80;82.38;100125.34;1779633;80;21588;-56
2022/08/12 04:14:22;;;;;;;9.78;8.50;;;;;;;29.49;72.75;100132.11;1779534;80;20992;-55
2022/08/12 04:16:49;;;;;;;9.55;8.58;;;;;;;29.79;70.43;100128.55;1779269;80;21735;-56
2022/08/12 04:19:16;;;;;;;9.95;8.95;;;;;;;29.95;67.03;100132.12;1773884;80;21415;-64
2022/08/12 04:21:43;;;;;;;10.93;9.18;;;;;;;29.73;66.87;100129.80;1770786;80;20940;-58
2022/08/12 04:24:11;;;;;;;9.68;8.68;;;;;;;29.52;69.61;100133.62;1771331;80;21505;-57
2022/08/12 04:26:39;;;;;;;9.40;8.58;;;;;;;29.50;70.49;100137.70;1771271;80;20991;-56
2022/08/12 04:29:09;;;;;;;10.50;9.40;;;;;;;29.73;69.79;100134.38;1770604;80;21073;-59
2022/08/12 04:31:39;;;;;;;10.38;8.98;;;;;;;29.87;67.52;100139.63;1770533;80;21019;-57
2022/08/12 04:34:07;;;;;;;9.38;8.43;;;;;;;29.73;67.34;100148.60;1770158;80;21532;-57
2022/08/12 04:36:39;;;;;;;10.48;9.48;;;;;;;29.85;68.95;100149.33;1771164;80;21550;-57
2022/08/12 04:39:07;;;;;;;12.15;9.43;;;;;;;30.24;66.63;100157.06;1749390;80;21027;-57
2022/08/12 04:41:37;;;;;;;10.18;9.18;;;;;;;30.68;63.03;100151.84;1770989;80;20980;-68
2022/08/12 04:44:05;;;;;;;11.33;9.75;;;;;;;31.10;59.90;100153.39;1771312;80;21296;-60
2022/08/12 04:46:33;;;;;;;10.63;9.18;;;;;;;31.23;58.99;100150.27;1771196;80;20989;-57
2022/08/12 04:49:01;;;;;;;10.93;9.15;;;;;;;31.02;59.08;100157.70;1770802;80;20979;-65
2022/08/12 04:51:28;;;;;;;10.23;9.33;;;;;;;30.66;58.78;100160.02;1771327;80;21347;-57
2022/08/12 04:53:56;;;;;;;10.70;9.78;;;;;;;30.18;61.16;100164.48;1770379;80;21217;-56
2022/08/12 04:56:24;;;;;;;11.12;9.88;;;;;;;29.71;65.31;100156.76;1770735;80;21039;-56
2022/08/12 04:58:51;;;;;;;11.18;9.58;;;;;;;29.30;68.46;100160.00;1771414;80;20920;-56
2022/08/12 05:01:19;;;;;;;10.75;9.58;;;;;;;28.90;72.77;100167.76;1770614;80;21573;-57
2022/08/12 05:03:48;;;;;;;11.75;10.15;;;;;;;28.53;76.42;100169.76;1770406;80;21460;-58
2022/08/12 05:06:15;;;;;;;12.53;10.30;;;;;;;28.19;80.62;100165.69;1771303;80;21116;-57
2022/08/12 05:08:42;;;;;;;11.30;10.20;;;;;;;27.84;90.32;100172.59;1771107;80;21515;-56
2022/08/12 05:11:10;;;;;;;12.03;10.13;;;;;;;27.84;90.32;100172.59;1770652;80;20953;-58
2022/08/12 05:13:39;;;;;;;11.15;10.05;;;;;;;27.78;93.64;100170.59;1770929;80;20991;-58
2022/08/12 05:16:07;;;;;;;12.13;9.88;;;;;;;27.81;98.13;100163.30;1771085;80;21113;-57
2022/08/12 05:18:36;;;;;;;11.40;9.58;;;;;;;27.94;98.38;100168.92;1772609;80;21231;-56
2022/08/12 05:21:06;;;;;;;10.85;9.85;;;;;;;28.07;95.64;100167.56;1778650;80;20974;-59
2022/08/12 05:23:35;;;;;;;11.30;9.80;;;;;;;28.14;93.30;100172.48;1779834;80;21812;-57
2022/08/12 05:26:02;;;;;;;11.38;10.28;;;;;;;28.08;93.13;100169.69;1748530;80;21047;-57
2022/08/12 05:28:29;;;;;;;14.23;10.25;;;;;;;28.02;95.21;100162.84;1779570;80;21106;-58
2022/08/12 05:31:00;;;;;;;11.60;10.43;;;;;;;27.95;93.46;100165.14;1778786;80;21104;-63
2022/08/12 05:33:36;;;;;;;12.35;10.98;;;;;;;27.88;96.52;100166.88;1779472;80;21416;-56
2022/08/12 05:36:07;;;;;;;11.38;10.32;;;;;;;27.80;97.17;100170.27;1779013;80;20979;-59
2022/08/12 05:41:21;;;;;;;13.83;10.43;;;;;;;27.68;97.26;100158.70;1779009;80;21057;-65
2022/08/12 05:43:50;;;;;;;12.35;10.60;;;;;;;27.64;99.72;100164.41;1778984;80;21241;-57
2022/08/12 05:46:19;;;;;;;12.20;11.00;;;;;;;27.63;100.00;100168.19;1778895;80;20920;-62
2022/08/12 05:48:48;;;;;;;12.40;10.93;;;;;;;27.64;100.00;100159.06;1779365;80;21418;-57
2022/08/12 05:51:15;;;;;;;13.22;11.43;;;;;;;27.68;100.00;100159.25;1779533;80;20976;-56
2022/08/12 05:53:43;;;;;;;12.13;10.68;;;;;;;27.66;100.00;100158.23;1779089;80;21137;-57
2022/08/12 05:56:25;;;;;;;11.33;10.10;;;;;;;27.67;100.00;100173.75;1778869;80;21384;-64
2022/08/12 05:58:53;;;;;;;13.03;10.65;;;;;;;27.61;100.00;100165.80;1779557;80;21494;-56
2022/08/12 06:01:21;;;;;;;10.40;9.38;;;;;;;27.56;100.00;100164.56;1778950;80;21027;-63
2022/08/12 06:03:49;;;;;;;12.05;10.72;;;;;;;27.56;100.00;100161.89;1778943;80;21447;-58
2022/08/12 06:06:16;;;;;;;11.75;10.60;;;;;;;27.53;100.00;100165.16;1778665;80;21018;-59
2022/08/12 06:08:47;;;;;;;12.90;10.50;;;;;;;27.52;100.00;100166.81;1779247;80;21887;-56
2022/08/12 06:11:16;;;;;;;11.75;10.55;;;;;;;27.53;100.00;100169.17;1779648;80;20936;-56
2022/08/12 06:13:44;;;;;;;13.00;11.70;;;;;;;27.59;100.00;100172.56;1779439;80;20932;-56
2022/08/12 06:16:14;;;;;;;12.75;10.85;;;;;;;27.67;100.00;100174.53;1778644;80;21071;-57
2022/08/12 06:18:41;;;;;;;12.28;10.93;;;;;;;27.83;100.00;100181.18;1779096;80;21118;-56
2022/08/12 06:21:13;;;;;;;12.63;11.20;;;;;;;28.15;99.47;100182.13;1779417;80;21213;-56
2022/08/12 06:23:40;;;;;;;13.98;10.70;;;;;;;28.42;99.12;100181.82;1778655;80;21535;-56
2022/08/12 06:26:10;;;;;;;12.53;11.25;;;;;;;28.63;91.77;100186.92;1778803;80;21853;-58
2022/08/12 06:28:41;;;;;;;12.28;10.93;;;;;;;28.73;85.89;100176.52;1779405;80;21364;-57
2022/08/12 06:31:08;;;;;;;;;;;;;;;28.77;85.88;100176.14;1781979;80;20971;-60
2022/08/12 06:33:35;;;;;;;11.68;10.58;;;;;;;28.88;84.59;100179.36;1779239;80;21114;-56
2022/08/12 06:36:04;;;;;;;11.38;10.28;;;;;;;29.06;79.59;100175.70;1778650;80;21101;-57
2022/08/12 06:38:33;;;;;;;13.98;11.78;;;;;;;29.34;78.14;100183.78;1779493;80;21002;-57
2022/08/12 06:43:50;;;;;;;12.90;11.03;;;;;;;30.27;65.66;100184.67;1778704;80;21083;-64
2022/08/12 06:46:15;;;;;;;13.68;11.12;;;;;;;30.81;59.76;100182.97;1778801;80;21161;-57
2022/08/12 06:48:42;;;;;;;13.72;9.88;;;;;;;31.23;57.15;100173.95;1779216;80;20921;-57
2022/08/12 06:51:11;;;;;;;11.33;10.18;;;;;;;31.42;55.40;100178.95;1778491;80;20931;-58
2022/08/12 06:53:38;;;;;;;15.30;11.40;;;;;;;31.45;54.95;100176.97;1779441;80;21907;-55
2022/08/12 06:56:05;;;;;;;14.40;11.65;;;;;;;31.39;53.61;100181.51;1778898;80;21545;-55
2022/08/12 06:58:33;;;;;;;12.63;11.33;;;;;;;31.38;53.82;100188.80;1779181;80;21143;-56
2022/08/12 07:01:00;;;;;;;12.75;11.55;;;;;;;31.64;52.94;100173.85;1779678;80;20956;-62
2022/08/12 07:03:27;;;;;;;11.45;10.28;;;;;;;32.06;50.80;100179.86;1778941;80;20927;-59
2022/08/12 07:05:58;;;;;;;13.05;11.75;;;;;;;32.49;50.53;100179.51;1779098;80;20920;-56
2022/08/12 07:08:30;;;;;;;14.30;11.05;;;;;;;32.97;48.33;100176.73;1779447;80;21070;-57
2022/08/12 07:11:03;;;;;;;12.45;11.20;;;;;;;33.35;46.55;100177.77;1779339;80;21240;-66
2022/08/12 07:13:42;;;;;;;11.75;10.45;;;;;;;33.56;44.18;100187.69;1778794;80;21770;-59
2022/08/12 07:16:07;;;;;;;14.25;10.50;;;;;;;33.62;43.63;100199.86;1779215;80;21024;-56
2022/08/12 07:18:34;;;;;;;12.75;10.88;;;;;;;33.65;43.11;100187.02;1779362;80;21028;-56
2022/08/12 07:21:03;;;;;;;10.90;9.80;;;;;;;33.75;42.58;100188.45;1771524;80;21027;-57
2022/08/12 07:23:35;;;;;;;11.22;10.03;;;;;;;33.81;42.35;100197.91;1770670;80;21339;-56
2022/08/12 07:26:04;;;;;;;13.58;10.50;;;;;;;33.85;42.40;100190.70;1770950;80;21130;-57
2022/08/12 07:28:34;;;;;;;11.70;9.55;;;;;;;33.81;42.70;100196.00;1771085;80;20999;-60
2022/08/12 07:31:07;;;;;;;10.78;9.88;;;;;;;33.87;42.40;100208.16;1770921;80;21014;-64
2022/08/12 07:33:41;;;;;;;12.20;9.63;;;;;;;33.97;42.64;100205.53;1771174;80;21471;-57
2022/08/12 07:36:07;;;;;;;;;;;;;;;34.08;42.89;100197.77;1772679;80;21195;-55
2022/08/12 07:38:47;;;;;;;11.00;9.90;;;;;;;34.25;41.83;100191.30;1770648;80;20505;-64
2022/08/12 07:41:17;;;;;;;11.15;9.95;;;;;;;34.25;41.17;100201.55;1769700;80;21549;-58
2022/08/12 07:43:56;;;;;;;10.38;9.30;;;;;;;34.08;41.11;100211.29;1771255;80;21070;-58
2022/08/12 07:46:30;;;;;;;14.45;10.50;;;;;;;33.94;40.33;100208.13;1770560;80;20943;-64
2022/08/12 07:49:00;;;;;;;11.05;9.68;;;;;;;33.77;41.09;100211.89;1770732;80;21632;-57
2022/08/12 07:51:27;;;;;;;11.48;9.93;;;;;;;33.77;41.21;100217.30;1771149;80;20975;-57
2022/08/12 07:53:56;;;;;;;11.63;10.30;;;;;;;33.78;41.47;100214.25;1771616;80;21106;-56
2022/08/12 07:56:23;;;;;;;11.55;10.05;;;;;;;33.76;41.80;100210.33;1770988;80;21024;-57
2022/08/12 07:58:51;;;;;;;14.30;9.65;;;;;;;33.68;40.14;100210.67;1770623;80;21508;-58
2022/08/12 08:01:20;;;;;;;12.55;9.88;;;;;;;33.60;41.91;100215.61;1771215;80;21360;-57
2022/08/12 08:06:39;;;;;;;13.62;9.35;;;;;;;33.50;41.44;100214.17;1770625;80;20972;-64
2022/08/12 08:09:09;;;;;;;11.78;10.18;;;;;;;33.64;40.17;100214.62;1771256;80;21803;-56
2022/08/12 08:14:28;;;;;;;13.40;9.78;;;;;;;34.47;37.44;100208.89;1770674;80;21276;-61
2022/08/12 08:16:51;;;;;;;15.38;8.95;;;;;;;34.93;35.68;100222.34;1770601;80;21506;-58
2022/08/12 08:19:22;;;;;;;10.78;7.80;;;;;;;35.14;35.54;100225.39;1771657;80;21433;-57
2022/08/12 08:21:48;;;;;;;11.70;7.90;;;;;;;35.09;33.96;100242.12;1778914;80;20904;-61
2022/08/12 08:24:16;;;;;;;10.30;8.08;;;;;;;34.78;33.11;100238.80;1778608;80;21023;-59
2022/08/12 08:26:47;;;;;;;12.00;7.92;;;;;;;34.36;32.72;100224.83;1779499;80;21290;-57
2022/08/12 08:29:18;;;;;;;11.05;8.28;;;;;;;34.06;33.45;100227.88;1779451;80;20972;-57
2022/08/12 08:31:49;;;;;;;10.85;8.05;;;;;;;33.90;34.84;100231.02;1779553;80;20916;-57
2022/08/12 08:34:14;;;;;;;16.73;8.55;;;;;;;33.82;34.09;100236.77;1778790;80;20908;-64
2022/08/12 08:36:42;;;;;;;10.63;7.85;;;;;;;33.57;34.63;100233.31;1779982;80;21426;-56
2022/08/12 08:39:12;;;;;;;11.08;7.92;;;;;;;33.37;33.76;100244.41;1780191;80;21168;-58
2022/08/12 08:44:24;;;;;;;10.78;7.92;;;;;;;32.81;35.19;100240.58;1780238;80;21709;-58
2022/08/12 08:46:54;;;;;;;11.08;7.75;;;;;;;32.82;35.46;100254.30;1780025;80;20897;-56
2022/08/12 08:49:25;;;;;;;14.55;9.80;;;;;;;32.85;35.41;100230.13;1780157;80;21018;-57
2022/08/12 08:51:50;;;;;;;10.65;8.30;;;;;;;32.91;35.26;100229.34;1778544;80;22216;-64
2022/08/12 08:54:17;;;;;;;11.53;9.18;;;;;;;33.09;35.25;100226.72;1779296;80;21859;-57
2022/08/12 08:56:48;;;;;;;13.62;7.75;;;;;;;33.41;35.53;100222.37;1779832;80;20994;-56
2022/08/12 08:59:14;;;;;;;10.23;7.33;;;;;;;33.77;35.55;100224.84;1779895;80;20939;-57
2022/08/12 09:01:42;;;;;;;9.08;7.75;;;;;;;34.17;34.83;100240.33;1779696;80;20971;-65
2022/08/12 09:04:12;;;;;;;10.55;8.18;;;;;;;34.42;34.45;100230.23;1779201;80;21222;-58
2022/08/12 09:06:40;;;;;;;;;;;;;;;34.53;33.60;100231.34;1782483;80;21058;-57
2022/08/12 09:09:13;;;;;;;9.68;7.00;;;;;;;34.47;32.93;100239.45;1780208;80;20430;-56
2022/08/12 09:14:26;;;;;;;10.50;7.10;;;;;;;34.49;33.10;100240.47;1779972;80;21039;-57
2022/08/12 09:16:53;;;;;;;10.53;7.92;;;;;;;34.61;32.63;100248.56;1779867;80;21196;-56
2022/08/12 09:19:21;;;;;;;8.55;7.00;;;;;;;34.57;32.51;100237.64;1779838;80;20990;-56
2022/08/12 09:21:48;;;;;;;10.48;7.75;;;;;;;34.37;32.20;100239.39;1779928;80;20892;-64
2022/08/12 09:24:18;;;;;;;11.63;7.40;;;;;;;34.02;31.93;100241.86;1779256;80;21430;-58
2022/08/12 09:26:46;;;;;;;10.68;7.05;;;;;;;33.59;32.04;100243.21;1780175;80;21006;-57
2022/08/12 09:29:17;;;;;;;8.63;7.03;;;;;;;33.23;33.11;100247.23;1779300;80;21321;-57
2022/08/12 09:31:44;;;;;;;10.03;7.50;;;;;;;33.10;33.47;100243.14;1779614;80;20940;-58
2022/08/12 09:34:11;;;;;;;10.00;7.50;;;;;;;33.05;33.77;100241.23;1778603;80;21050;-58
2022/08/12 09:36:39;;;;;;;10.53;7.30;;;;;;;32.98;34.33;100249.09;1779739;80;21921;-56
2022/08/12 09:39:07;;;;;;;12.47;7.53;;;;;;;32.99;33.49;100250.66;1779620;80;21055;-56
2022/08/12 09:41:41;;;;;;;7.30;5.83;;;;;;;32.91;33.05;100246.89;1779404;80;21146;-58
2022/08/12 09:46:54;;;;;;;9.20;6.58;;;;;;;32.74;34.16;100247.86;1779503;80;21068;-58
2022/08/12 09:49:23;;;;;;;11.15;6.45;;;;;;;32.71;33.35;100257.97;1779170;80;21022;-58
2022/08/12 09:51:50;;;;;;;7.42;5.97;;;;;;;32.61;33.26;100257.80;1778915;80;22351;-58
2022/08/12 09:54:20;;;;;;;7.25;5.85;;;;;;;32.46;33.05;100259.20;1779202;80;21286;-56
2022/08/12 09:56:47;;;;;;;11.65;6.75;;;;;;;32.37;33.72;100267.12;1779278;80;21031;-56
2022/08/12 09:59:17;;;;;;;12.03;6.95;;;;;;;32.19;33.29;100271.27;1779174;80;21471;-57
2022/08/12 10:01:43;;;;;;;10.48;7.58;;;;;;;31.96;33.64;100276.75;1778754;80;21110;-64
2022/08/12 10:04:11;;;;;;;9.23;6.87;;;;;;;31.78;34.00;100263.09;1779592;80;20959;-55
2022/08/12 10:06:40;;;;;;;11.57;7.03;;;;;;;31.67;34.58;100267.52;1779106;80;21109;-55
2022/08/12 10:09:08;;;;;;;9.23;6.70;;;;;;;31.67;34.84;100272.91;1779340;80;21531;-55
2022/08/12 10:14:22;;;;;;;11.40;8.40;;;;;;;31.69;35.02;100277.41;1779218;80;21368;-56
2022/08/12 10:16:50;;;;;;;11.68;7.67;;;;;;;31.64;35.39;100269.52;1779259;80;21006;-56
2022/08/12 10:19:18;;;;;;;11.05;7.45;;;;;;;31.70;35.50;100276.28;1779086;80;21150;-63
2022/08/12 10:21:46;;;;;;;14.40;8.55;;;;;;;31.70;35.36;100270.89;1772407;80;21386;-63
2022/08/12 10:24:17;;;;;;;14.60;8.28;;;;;;;31.77;35.90;100270.95;1771024;80;20971;-56
2022/08/12 10:29:37;;;;;;;11.65;7.62;;;;;;;31.95;36.37;100258.99;1770771;80;20129;-57
2022/08/12 10:32:05;;;;;;;12.33;8.35;;;;;;;32.05;36.38;100262.67;1771026;80;21244;-55
2022/08/12 10:34:32;;;;;;;9.63;8.63;;;;;;;32.08;36.24;100261.98;1771278;80;20929;-56
2022/08/12 10:37:01;;;;;;;12.50;9.40;;;;;;;32.10;35.97;100270.55;1771054;80;21422;-63
2022/08/12 10:39:33;;;;;;;18.73;14.00;;;;;;;32.03;35.30;100267.59;1771053;80;22074;-55
2022/08/12 10:44:47;;;;;;;10.38;7.55;;;;;;;31.85;35.00;100279.02;1770432;80;21169;-63
2022/08/12 10:47:21;;;;;;;11.08;7.72;;;;;;;31.74;35.00;100279.91;1771237;80;21023;-61
2022/08/12 10:49:48;;;;;;;8.80;7.15;;;;;;;31.64;35.38;100275.46;1771004;80;20972;-56
2022/08/12 10:52:15;;;;;;;11.45;6.42;;;;;;;31.62;36.01;100281.16;1771003;80;21040;-55
2022/08/12 10:54:45;;;;;;;8.03;6.22;;;;;;;31.57;35.60;100285.39;1770268;80;21059;-57
2022/08/12 10:57:11;;;;;;;10.58;7.25;;;;;;;31.55;35.94;100284.13;1771193;80;21275;-56
2022/08/12 10:59:38;;;;;;;13.80;7.87;;;;;;;31.52;35.79;100280.19;1770651;80;20884;-60
2022/08/12 11:02:07;;;;;;;9.28;6.83;;;;;;;31.50;35.74;100282.41;1770843;80;21061;-57
2022/08/12 11:04:37;;;;;;;11.00;7.72;;;;;;;31.48;36.70;100289.47;1770698;80;21028;-63
2022/08/12 11:07:03;;;;;;;10.43;7.87;;;;;;;31.43;38.15;100295.58;1770990;80;21829;-57
2022/08/12 11:09:31;;;;;;;9.55;7.45;;;;;;;31.35;38.64;100297.75;1770953;80;22148;-59
2022/08/12 11:12:04;;;;;;;13.08;7.92;;;;;;;31.28;39.04;100295.51;1770927;80;21455;-55
2022/08/12 11:14:32;;;;;;;10.30;7.70;;;;;;;31.19;39.79;100293.41;1770383;80;20925;-62
2022/08/12 11:17:01;;;;;;;11.28;8.40;;;;;;;31.17;40.12;100291.02;1771494;80;21035;-56
2022/08/12 11:19:28;;;;;;;9.15;7.95;;;;;;;31.16;40.68;100288.09;1770703;80;20986;-55
2022/08/12 11:21:56;;;;;;;14.30;9.03;;;;;;;31.14;40.65;100294.37;1771320;80;21192;-55
2022/08/12 11:24:23;;;;;;;10.95;7.62;;;;;;;31.11;40.92;100293.66;1770460;80;21727;-61
2022/08/12 11:26:51;;;;;;;10.75;7.90;;;;;;;31.14;41.43;100288.17;1771049;80;21399;-58
2022/08/12 11:29:19;;;;;;;12.15;8.00;;;;;;;31.15;41.60;100283.83;1770757;80;21420;-59
2022/08/12 11:31:47;;;;;;;12.95;7.75;;;;;;;31.19;41.47;100279.38;1771231;80;21055;-55
2022/08/12 11:34:15;;;;;;;10.32;7.47;;;;;;;31.22;42.04;100278.75;1770797;80;21154;-58
2022/08/12 11:37:01;;;;;;;12.58;8.50;;;;;;;31.23;42.05;100273.59;1770653;80;21306;-56
2022/08/12 11:39:28;;;;;;;10.90;8.03;;;;;;;31.25;42.50;100274.07;1771042;80;22007;-55
2022/08/12 11:41:55;;;;;;;13.35;9.48;;;;;;;31.35;42.28;100269.47;1770732;80;20932;-61
2022/08/12 11:44:22;;;;;;;13.40;8.63;;;;;;;31.40;42.03;100274.66;1771408;80;21063;-57
2022/08/12 11:46:56;;;;;;;10.55;8.23;;;;;;;31.50;41.88;100277.02;1770850;80;21150;-62
2022/08/12 11:49:27;;;;;;;12.03;8.25;;;;;;;31.51;41.83;100271.86;1771225;80;21110;-56
2022/08/12 11:51:55;;;;;;;7.92;6.95;;;;;;;31.56;41.96;100266.30;1770252;80;20979;-56
2022/08/12 11:54:22;;;;;;;10.68;7.42;;;;;;;31.59;41.82;100266.20;1771162;80;21854;-55
2022/08/12 11:56:49;;;;;;;9.28;7.83;;;;;;;31.65;41.50;100261.66;1770524;80;20992;-63
2022/08/12 11:59:16;;;;;;;10.45;7.42;;;;;;;31.73;41.91;100266.77;1770796;80;21420;-55
2022/08/12 12:01:44;;;;;;;10.40;6.67;;;;;;;31.83;41.24;100273.71;1771312;80;20976;-65
2022/08/12 12:04:11;;;;;;;8.28;6.92;;;;;;;31.81;41.64;100278.63;1770886;80;21007;-56
2022/08/12 12:06:38;;;;;;;10.05;6.90;;;;;;;31.86;41.17;100281.97;1770919;80;21952;-63
2022/08/12 12:09:05;;;;;;;8.75;7.25;;;;;;;31.86;41.27;100277.92;1770767;80;21442;-56
2022/08/12 12:11:32;;;;;;;12.28;7.47;;;;;;;31.88;41.20;100282.98;1771160;80;21290;-55
2022/08/12 12:14:00;;;;;;;12.15;7.72;;;;;;;31.82;41.25;100286.94;1770642;80;21050;-58
2022/08/12 12:16:27;;;;;;;10.25;7.75;;;;;;;31.75;42.03;100283.42;1770674;80;21374;-56
2022/08/12 12:18:55;;;;;;;10.10;8.05;;;;;;;31.78;43.04;100281.40;1771119;80;21505;-62
2022/08/12 12:21:22;;;;;;;13.80;7.80;;;;;;;31.86;42.54;100276.58;1773989;80;21590;-55
2022/08/12 12:23:50;;;;;;;13.13;7.30;;;;;;;31.92;42.14;100276.61;1779571;80;21259;-64
2022/08/12 12:26:17;;;;;;;10.40;7.55;;;;;;;31.95;41.42;100269.22;1778753;80;20981;-55
2022/08/12 12:28:44;;;;;;;14.07;8.48;;;;;;;32.02;41.76;100266.02;1779533;80;20971;-55
2022/08/12 12:31:11;;;;;;;10.75;8.05;;;;;;;32.04;42.90;100265.11;1778929;80;21014;-56
2022/08/12 12:33:39;;;;;;;10.58;7.87;;;;;;;32.10;42.97;100262.47;1779391;80;21986;-55
2022/08/12 12:36:07;;;;;;;11.70;8.03;;;;;;;32.18;41.81;100258.92;1778824;80;21202;-64
2022/08/12 12:38:35;;;;;;;11.68;8.13;;;;;;;32.19;41.77;100257.01;1779472;80;21298;-57
2022/08/12 12:41:02;;;;;;;11.85;8.03;;;;;;;32.13;41.26;100249.68;1778984;80;20936;-58
2022/08/12 12:43:30;;;;;;;11.53;8.65;;;;;;;32.10;41.29;100253.59;1779259;80;21470;-56
2022/08/12 12:45:57;;;;;;;12.45;8.28;;;;;;;32.06;40.96;100258.84;1779357;80;21090;-60
2022/08/12 12:48:24;;;;;;;10.08;7.95;;;;;;;31.98;41.36;100257.00;1778733;80;21300;-55
2022/08/12 12:53:42;;;;;;;12.98;8.68;;;;;;;31.92;41.22;100254.25;1779363;80;21046;-55
2022/08/12 12:56:24;;;;;;;10.50;9.25;;;;;;;31.90;41.80;100255.16;1779199;80;28260;-55
2022/08/12 12:58:50;;;;;;;10.98;7.45;;;;;;;31.88;41.74;100255.45;1778378;80;20944;-64
2022/08/12 13:01:24;;;;;;;10.75;8.10;;;;;;;31.88;41.07;100259.50;1779329;80;21246;-55
2022/08/12 13:03:58;;;;;;;9.28;8.18;;;;;;;31.83;41.28;100264.27;1778848;80;20916;-56
2022/08/12 13:06:28;;;;;;;9.73;8.60;;;;;;;31.80;41.47;100266.27;1779392;80;21068;-55
2022/08/12 13:08:58;;;;;;;17.90;11.00;;;;;;;31.72;41.14;100263.29;1778795;80;21426;-58
2022/08/12 13:11:27;;;;;;;10.90;9.08;;;;;;;31.69;41.55;100264.49;1779398;80;21458;-59
2022/08/12 13:13:55;;;;;;;14.87;9.80;;;;;;;31.69;42.71;100264.49;1778986;80;21239;-55
2022/08/12 13:16:28;;;;;;;13.15;8.45;;;;;;;31.64;42.83;100263.34;1779671;80;20884;-55
2022/08/12 13:18:52;;;;;;;14.58;8.93;;;;;;;31.48;42.73;100267.11;1778012;80;21043;-55
2022/08/12 13:21:20;;;;;;;13.58;8.95;;;;;;;31.36;42.56;100263.74;1777047;80;21098;-57